Terminal Aerodrome Forecast
Issued by NWS

Home | Current Version | Previous Version | Text Only | Print | Product List | Glossary On
Versions: 1 2 3 4 5 6 7 8 9 10 11 12 13 14 15 16 17 18 19 20 21 22 23 24 25 26 27
000
FTUS42 KMFL 310854 CCA
TAFTMB
TAF COR
KTMB 310854Z 3109/0106 VRB12KT 6SM SHRA SCT030 SCT250
      TEMPO 3109/3112 VRB10G18KT SHRA SCT028
     FM311200 VRB05KT P6SM VCSH FEW030 SCT250
     FM311600 13010KT P6SM VCSH SCT025 SCT100 BKN250
     FM010200 13006KT P6SM SCT020 SCT250=

USA.gov is the U.S. government's official web portal to all federal, state and local government web resources and services.